Time;durP1;ratioP1;P1;durP2;ratioP2;P2;SDS_P1;SDS_P2;PMS_P1;PMS_P2;Temp;Humidity;BMP_temperature;BMP_pressure;BME280_temperature;BME280_humidity;BME280_pressure;Samples;Min_cycle;Max_cycle;Signal;HPM_P1;HPM_P2
2021/12/05 00:24:17;;;;;;;62.50;54.13;;;;;;;-0.08;100.00;99749.34;4996347;28;20121;-85
2021/12/05 00:26:47;;;;;;;76.15;56.72;;;;;;;-0.19;100.00;99751.91;4970961;28;20026;-85
2021/12/05 00:29:37;;;;;;;65.38;54.00;;;;;;;-0.13;100.00;99733.34;4969192;28;20031;-85
2021/12/05 00:32:11;;;;;;;64.72;55.03;;;;;;;-0.26;100.00;99725.75;4988812;28;20030;-86
2021/12/05 00:38:00;;;;;;;59.17;53.22;;;;;;;-0.06;100.00;99752.72;5008757;28;20030;-87
2021/12/05 00:43:21;;;;;;;60.90;52.83;;;;;;;-0.09;100.00;99761.16;5009090;28;19976;-85
2021/12/05 00:59:33;;;;;;;60.50;52.63;;;;;;;-0.08;100.00;99779.69;5014266;28;20150;-83
2021/12/05 01:04:38;;;;;;;69.65;55.78;;;;;;;-0.04;100.00;99788.97;5016405;28;20038;-84
2021/12/05 01:12:45;;;;;;;65.18;54.67;;;;;;;-0.04;100.00;99797.38;5011702;28;19909;-83
2021/12/05 01:15:16;;;;;;;66.07;55.22;;;;;;;-0.21;100.00;99787.28;4998422;28;20022;-85
2021/12/05 01:18:04;;;;;;;67.20;55.28;;;;;;;-0.11;100.00;99787.25;4992036;28;20030;-83
2021/12/05 01:20:33;;;;;;;56.42;50.72;;;;;;;-0.08;100.00;99802.44;4997685;28;20036;-86
2021/12/05 01:23:08;;;;;;;67.20;55.35;;;;;;;-0.06;100.00;99800.78;4996737;28;20032;-86
2021/12/05 01:26:14;;;;;;;63.78;54.75;;;;;;;0.00;100.00;99805.81;5013869;28;20026;-84
2021/12/05 02:09:48;;;;;;;66.13;54.38;;;;;;;-0.01;100.00;99815.06;4996990;28;20041;-85
2021/12/05 02:15:25;;;;;;;59.78;53.35;;;;;;;-0.02;100.00;99815.06;4987990;28;20131;-85
2021/12/05 02:32:17;;;;;;;62.97;54.70;;;;;;;0.03;100.00;99840.38;4992928;28;20025;-84
2021/12/05 02:34:52;;;;;;;66.72;55.90;;;;;;;0.04;100.00;99842.88;4987817;28;20038;-85
2021/12/05 02:37:39;;;;;;;65.05;55.28;;;;;;;0.15;100.00;99850.47;4987202;28;20219;-84
2021/12/05 02:40:21;;;;;;;;;;;;;;;0.09;100.00;99855.53;4989349;28;20019;-85
2021/12/05 02:43:01;;;;;;;67.35;55.20;;;;;;;0.13;100.00;99862.28;4987645;28;19914;-85
2021/12/05 02:45:26;;;;;;;65.40;54.70;;;;;;;-0.06;100.00;99838.69;4987920;28;20034;-85
2021/12/05 02:47:53;;;;;;;58.33;51.83;;;;;;;0.17;100.00;99863.97;4983931;28;20092;-84
2021/12/05 02:50:23;;;;;;;70.85;56.50;;;;;;;0.06;100.00;99866.47;4983715;28;20037;-85
2021/12/05 02:52:49;;;;;;;66.97;54.97;;;;;;;0.06;100.00;99851.31;4983709;28;20026;-84
2021/12/05 02:55:39;;;;;;;62.55;54.72;;;;;;;-0.06;100.00;99847.09;4984244;28;20027;-85
2021/12/05 02:58:16;;;;;;;78.20;56.78;;;;;;;0.03;100.00;99850.47;4983215;28;20500;-83
2021/12/05 03:01:10;;;;;;;67.57;56.83;;;;;;;0.06;100.00;99848.78;5007418;28;20030;-84
2021/12/05 03:03:32;;;;;;;68.72;56.38;;;;;;;0.17;100.00;99869.03;5019253;28;20038;-83
2021/12/05 03:06:10;;;;;;;68.55;55.80;;;;;;;0.11;100.00;99872.41;5004581;28;20110;-84
2021/12/05 03:08:35;;;;;;;71.93;56.80;;;;;;;0.01;100.00;99853.00;5007191;28;20094;-84
2021/12/05 03:11:03;;;;;;;70.43;56.80;;;;;;;0.06;100.00;99865.66;4997887;28;20046;-83
2021/12/05 03:13:28;;;;;;;75.13;57.88;;;;;;;-0.01;100.00;99858.06;5014716;28;20014;-83
2021/12/05 03:15:56;;;;;;;70.00;56.50;;;;;;;0.15;100.00;99869.03;4999223;28;20503;-84
2021/12/05 03:18:23;;;;;;;67.82;53.92;;;;;;;0.14;100.00;99869.88;4998606;28;20018;-84
2021/12/05 03:20:49;;;;;;;72.32;57.08;;;;;;;0.04;100.00;99867.34;5013701;28;20052;-84
2021/12/05 03:23:14;;;;;;;66.27;54.37;;;;;;;0.13;100.00;99857.25;4997503;28;20046;-84
2021/12/05 03:25:40;;;;;;;65.60;55.50;;;;;;;0.13;100.00;99873.25;4992214;28;20252;-84
2021/12/05 03:28:05;;;;;;;84.53;58.70;;;;;;;0.03;100.00;99863.94;5005852;28;20062;-84
2021/12/05 03:30:31;;;;;;;72.17;57.50;;;;;;;0.12;100.00;99873.25;4989624;28;20031;-84
2021/12/05 03:32:58;;;;;;;62.13;54.00;;;;;;;0.00;100.00;99866.50;4988752;28;20032;-85
2021/12/05 03:35:26;;;;;;;73.20;57.08;;;;;;;0.03;100.00;99878.28;5006180;28;20033;-84
2021/12/05 03:37:56;;;;;;;64.53;53.85;;;;;;;-0.01;100.00;99864.81;4995804;28;20029;-84
2021/12/05 03:40:25;;;;;;;63.60;56.45;;;;;;;-0.09;100.00;99869.03;4996915;28;20027;-84
2021/12/05 03:42:51;;;;;;;72.18;57.38;;;;;;;-0.18;100.00;99836.97;5029386;23;20111;-87
2021/12/05 03:45:24;;;;;;;60.13;53.50;;;;;;;0.06;100.00;99880.81;4957144;29;20038;-86
2021/12/05 03:47:50;;;;;;;73.45;57.78;;;;;;;-0.03;100.00;99877.44;4953170;29;20031;-89
2021/12/05 03:50:16;;;;;;;77.38;56.88;;;;;;;-0.02;100.00;99888.41;4958792;28;20019;-85
2021/12/05 03:52:42;;;;;;;;;;;;;;;0.07;100.00;99893.47;4967675;28;20039;-87
2021/12/05 03:55:09;;;;;;;78.30;57.13;;;;;;;0.10;100.00;99903.59;4960689;28;19915;-85
2021/12/05 03:57:35;;;;;;;69.68;56.42;;;;;;;-0.09;100.00;99862.28;4958314;28;20263;-87
2021/12/05 04:00:07;;;;;;;77.00;58.78;;;;;;;-0.01;100.00;99869.88;4957152;29;20062;-86
2021/12/05 04:02:35;;;;;;;75.75;58.42;;;;;;;0.10;100.00;99900.22;4961807;28;20012;-84
2021/12/05 04:05:00;;;;;;;73.20;56.20;;;;;;;-0.12;100.00;99872.38;4961630;28;20023;-86
2021/12/05 04:07:26;;;;;;;76.93;59.17;;;;;;;-0.05;100.00;99888.41;4963153;28;20014;-85
2021/12/05 04:09:51;;;;;;;73.67;56.50;;;;;;;-0.05;100.00;99875.75;4965900;28;20063;-85
2021/12/05 04:12:17;;;;;;;69.77;56.40;;;;;;;0.13;100.00;99908.66;4966035;28;20038;-84
2021/12/05 04:14:45;;;;;;;65.43;52.50;;;;;;;-0.13;100.00;99874.91;4966050;28;20015;-84
2021/12/05 04:17:12;;;;;;;77.43;58.17;;;;;;;-0.04;100.00;99895.16;4965780;28;20035;-85
2021/12/05 04:19:39;;;;;;;64.07;53.33;;;;;;;-0.02;100.00;99904.44;4965706;28;20022;-85
2021/12/05 04:22:06;;;;;;;76.18;57.95;;;;;;;-0.31;100.00;99858.03;4965984;28;20007;-85
2021/12/05 04:24:35;;;;;;;77.88;57.47;;;;;;;-0.16;100.00;99895.13;4965667;28;20111;-84
2021/12/05 04:27:01;;;;;;;81.90;60.42;;;;;;;-0.05;100.00;99921.25;4965688;28;20046;-85
2021/12/05 04:29:28;;;;;;;89.43;62.30;;;;;;;-0.39;100.00;99889.16;4965449;28;20090;-85
2021/12/05 04:31:54;;;;;;;72.15;59.10;;;;;;;-0.13;100.00;99910.28;4964543;28;20027;-86
2021/12/05 04:34:20;;;;;;;71.13;55.50;;;;;;;-0.07;100.00;99925.47;4964067;29;20007;-86
2021/12/05 04:36:46;;;;;;;77.45;57.95;;;;;;;-0.14;100.00;99928.81;4984163;28;20038;-88
2021/12/05 04:39:15;;;;;;;82.57;60.10;;;;;;;-0.26;100.00;99920.38;5019181;28;20018;-85
2021/12/05 04:41:42;;;;;;;82.80;59.17;;;;;;;-0.21;100.00;99917.84;5018869;28;20279;-86
2021/12/05 04:44:08;;;;;;;79.05;58.45;;;;;;;-0.10;100.00;99925.47;5002400;28;20022;-85
2021/12/05 04:46:34;;;;;;;86.35;61.10;;;;;;;0.07;100.00;99964.28;5015587;28;20018;-85
2021/12/05 04:49:00;;;;;;;81.07;58.80;;;;;;;-0.06;100.00;99962.56;5001463;28;20014;-86
2021/12/05 04:51:31;;;;;;;85.38;59.85;;;;;;;-0.20;100.00;99939.78;4997097;28;20021;-86
2021/12/05 04:53:57;;;;;;;77.30;57.60;;;;;;;-0.13;100.00;99928.00;5018029;28;20022;-85
2021/12/05 04:56:23;;;;;;;91.22;58.63;;;;;;;-0.02;100.00;99954.13;5003015;28;20019;-86
2021/12/05 04:58:49;;;;;;;98.15;62.72;;;;;;;-0.16;100.00;99946.50;5003674;28;20023;-85
2021/12/05 05:01:15;;;;;;;90.93;60.33;;;;;;;-0.05;100.00;99975.22;5003667;28;20059;-85
2021/12/05 05:03:41;;;;;;;80.20;59.53;;;;;;;-0.22;100.00;99942.31;5019412;28;20228;-86
2021/12/05 05:06:15;;;;;;;92.03;61.65;;;;;;;-0.41;100.00;99935.50;5003806;28;20018;-86
2021/12/05 05:08:46;;;;;;;88.85;59.67;;;;;;;-0.06;100.00;99975.22;5019485;28;20022;-85
2021/12/05 05:11:16;;;;;;;87.25;61.42;;;;;;;-0.20;100.00;99965.88;5017995;28;20022;-88
2021/12/05 05:13:50;;;;;;;63.90;53.97;;;;;;;-0.27;100.00;99945.63;5017867;28;20026;-86
2021/12/05 05:16:21;;;;;;;87.95;59.85;;;;;;;-0.32;100.00;99944.78;5001092;28;20073;-87
2021/12/05 05:18:51;;;;;;;86.07;59.78;;;;;;;-0.12;100.00;99970.13;5016451;28;20022;-86
2021/12/05 05:29:37;;;;;;;81.85;57.60;;;;;;;-0.22;100.00;99967.56;5005405;28;20069;-87
2021/12/05 05:48:40;;;;;;;90.20;60.25;;;;;;;0.04;100.00;100037.59;5009854;28;20019;-85
2021/12/05 05:51:07;;;;;;;78.57;55.90;;;;;;;0.16;100.00;100045.22;5003598;28;20069;-87
2021/12/05 05:53:37;;;;;;;87.35;60.45;;;;;;;0.10;100.00;100055.31;4993669;28;20034;-86
2021/12/05 05:56:16;;;;;;;79.35;58.10;;;;;;;0.03;100.00;100065.41;5018374;28;20018;-86
2021/12/05 06:04:04;;;;;;;87.80;61.50;;;;;;;-0.12;100.00;100054.41;4987909;28;20052;-86
2021/12/05 06:06:32;;;;;;;84.65;60.83;;;;;;;0.14;100.00;100063.75;5007832;28;20033;-87
2021/12/05 06:09:02;;;;;;;79.80;59.05;;;;;;;-0.08;100.00;100040.06;5004189;28;20552;-88
2021/12/05 06:11:28;;;;;;;77.78;58.10;;;;;;;0.06;100.00;100075.53;5005201;28;20032;-86
2021/12/05 06:13:53;;;;;;;63.95;55.13;;;;;;;-0.13;100.00;100034.16;4995889;28;20454;-86
2021/12/05 06:16:19;;;;;;;66.63;55.43;;;;;;;-0.28;100.00;100004.63;5002082;28;20037;-84
2021/12/05 06:18:45;;;;;;;79.50;58.53;;;;;;;-0.21;100.00;100039.19;5002402;28;20022;-83
2021/12/05 06:21:12;;;;;;;76.30;57.83;;;;;;;0.06;100.00;100071.31;5018957;28;20151;-85
2021/12/05 06:23:41;;;;;;;74.10;56.47;;;;;;;-0.19;100.00;100048.47;5017609;28;20085;-84
2021/12/05 06:26:11;;;;;;;61.35;53.47;;;;;;;-0.09;100.00;100068.75;5014994;28;20022;-86
2021/12/05 06:28:41;;;;;;;64.53;53.88;;;;;;;-0.05;100.00;100093.19;5017426;28;20034;-85
2021/12/05 06:31:25;;;;;;;70.28;55.15;;;;;;;-0.21;100.00;100060.28;5017614;28;20010;-85
2021/12/05 06:47:23;;;;;;;79.13;58.10;;;;;;;0.04;100.00;100110.94;5001503;28;20440;-88
2021/12/05 06:49:49;;;;;;;67.93;56.33;;;;;;;-0.06;100.00;100104.16;4987881;28;20109;-88
2021/12/05 06:52:18;;;;;;;76.65;58.78;;;;;;;-0.14;100.00;100095.66;4987696;28;20030;-87
2021/12/05 06:54:44;;;;;;;71.50;56.22;;;;;;;-0.27;100.00;100087.19;5001937;28;20112;-87
2021/12/05 06:57:13;;;;;;;68.55;55.63;;;;;;;-0.06;100.00;100129.44;4985610;28;20038;-87
2021/12/05 06:59:39;;;;;;;74.22;57.78;;;;;;;-0.41;100.00;100077.00;5009549;28;20026;-87
2021/12/05 07:02:12;;;;;;;65.03;54.83;;;;;;;-0.06;100.00;100135.34;5003549;28;20022;-86
2021/12/05 07:07:28;;;;;;;67.22;55.92;;;;;;;-0.08;100.00;100153.84;5003174;28;20409;-87
2021/12/05 07:09:54;;;;;;;75.45;58.88;;;;;;;-0.42;100.00;100100.59;4985082;28;20444;-87
2021/12/05 07:15:24;;;;;;;76.10;57.53;;;;;;;-0.23;100.00;100124.28;5009340;28;20041;-88
2021/12/05 07:20:52;;;;;;;64.85;55.00;;;;;;;-0.17;100.00;100142.03;5016537;28;20071;-87
2021/12/05 07:23:43;;;;;;;71.53;56.97;;;;;;;0.03;100.00;100182.56;5003290;28;20038;-84
2021/12/05 07:42:43;;;;;;;72.65;58.30;;;;;;;0.00;100.00;100200.28;5010159;28;20041;-88
2021/12/05 07:45:17;;;;;;;68.37;57.00;;;;;;;-0.03;100.00;100201.09;4989494;28;20026;-88
2021/12/05 07:47:46;;;;;;;73.38;59.08;;;;;;;-0.02;100.00;100212.03;5002592;28;20026;-87
2021/12/05 07:50:13;;;;;;;73.43;58.10;;;;;;;-0.17;100.00;100177.41;4985427;28;20068;-88
2021/12/05 07:52:45;;;;;;;67.20;54.08;;;;;;;0.01;100.00;100217.13;5001559;28;20076;-88
2021/12/05 07:55:18;;;;;;;69.38;56.70;;;;;;;-0.19;100.00;100186.69;4966702;28;20055;-87
2021/12/05 08:00:29;;;;;;;69.35;56.03;;;;;;;-0.31;100.00;100173.94;4981142;28;20042;-84
2021/12/05 08:16:45;;;;;;;63.42;55.08;;;;;;;0.02;100.00;100254.22;4980632;28;20111;-86
2021/12/05 08:19:13;;;;;;;83.03;60.85;;;;;;;0.02;100.00;100256.75;4982337;28;20027;-86
2021/12/05 08:21:40;;;;;;;75.35;58.22;;;;;;;0.02;100.00;100269.41;4969153;28;20037;-88
2021/12/05 08:24:05;;;;;;;75.20;58.63;;;;;;;-0.02;100.00;100272.72;4986626;28;20046;-87
2021/12/05 08:26:33;;;;;;;75.05;61.15;;;;;;;-0.26;100.00;100248.94;4969145;28;20035;-88
2021/12/05 09:20:53;;;;;;;73.90;57.25;;;;;;;-0.20;100.00;100360.22;4986352;28;20098;-89
2021/12/05 10:01:30;;;;;;;66.10;53.05;;;;;;;-0.45;100.00;100398.72;4978601;28;20034;-88
2021/12/05 10:02:21;;;;;;;72.68;56.72;;;;;;;-0.47;100.00;100400.41;4964746;28;20088;-85
2021/12/05 10:37:46;;;;;;;73.03;57.03;;;;;;;-0.24;100.00;100454.59;4969238;28;20538;-86
2021/12/05 10:40:18;;;;;;;83.60;61.50;;;;;;;-0.25;100.00;100452.88;4949271;29;20027;-86
2021/12/05 10:42:47;;;;;;;79.82;59.05;;;;;;;-0.21;100.00;100449.56;4965579;28;20088;-86
2021/12/05 10:45:21;;;;;;;69.93;56.30;;;;;;;-0.10;100.00;100454.72;4965747;28;20027;-86
2021/12/05 10:47:50;;;;;;;71.63;57.97;;;;;;;-0.19;100.00;100447.88;4982131;28;20030;-87
2021/12/05 10:50:37;;;;;;;76.28;58.10;;;;;;;-0.09;100.00;100465.69;4967916;28;20027;-87
2021/12/05 10:53:42;;;;;;;78.75;60.33;;;;;;;-0.13;100.00;100466.47;4984731;28;20114;-86
2021/12/05 10:56:22;;;;;;;75.55;60.25;;;;;;;-0.02;100.00;100472.50;4977982;28;20074;-86
2021/12/05 10:58:52;;;;;;;81.07;59.55;;;;;;;0.05;100.00;100473.41;4975366;29;20031;-86
2021/12/05 11:01:23;;;;;;;80.78;61.10;;;;;;;-0.04;100.00;100475.00;4969831;28;20034;-86
2021/12/05 11:03:52;;;;;;;76.93;59.22;;;;;;;0.07;100.00;100462.47;4992149;28;20031;-87
2021/12/05 11:06:23;;;;;;;67.72;56.33;;;;;;;0.12;100.00;100486.13;4975106;29;20064;-87
2021/12/05 11:09:11;;;;;;;75.20;57.10;;;;;;;0.06;100.00;100482.69;4991724;28;20034;-86
2021/12/05 11:11:38;;;;;;;89.93;62.55;;;;;;;0.07;100.00;100487.78;4973624;28;20031;-87
2021/12/05 11:14:08;;;;;;;71.82;59.20;;;;;;;0.22;100.00;100486.22;4962305;29;20070;-87
2021/12/05 11:16:49;;;;;;;80.35;60.70;;;;;;;0.28;100.00;100493.88;4959306;29;20055;-87
2021/12/05 11:19:27;;;;;;;97.43;65.05;;;;;;;0.16;100.00;100490.41;4974510;28;21104;-87
2021/12/05 11:22:03;;;;;;;79.38;60.45;;;;;;;0.34;100.00;100504.06;4959681;29;20023;-87
2021/12/05 11:24:32;;;;;;;85.07;60.92;;;;;;;0.17;100.00;100476.91;4975218;28;20016;-86
2021/12/05 11:27:11;;;;;;;82.65;60.97;;;;;;;0.34;100.00;100504.06;4961023;29;20024;-87
2021/12/05 11:29:51;;;;;;;77.18;58.33;;;;;;;0.43;100.00;100505.81;4965024;29;20550;-87
2021/12/05 11:32:20;;;;;;;79.53;62.20;;;;;;;0.26;100.00;100483.75;4941448;29;20042;-86
2021/12/05 11:34:50;;;;;;;84.80;62.15;;;;;;;0.26;100.00;100471.09;4972692;28;20470;-86
2021/12/05 11:37:16;;;;;;;90.07;69.63;;;;;;;0.46;100.00;100499.13;4962225;28;20012;-86
2021/12/05 11:39:43;;;;;;;78.40;66.60;;;;;;;0.60;100.00;100516.09;5153902;23;20070;-86
2021/12/05 11:42:25;;;;;;;78.57;60.00;;;;;;;0.60;100.00;100516.09;5038754;23;20078;-88
2021/12/05 11:45:03;;;;;;;76.00;60.33;;;;;;;0.57;100.00;100523.66;4966949;29;20023;-87
2021/12/05 11:47:37;;;;;;;90.57;62.60;;;;;;;0.54;100.00;100500.03;4962724;28;20093;-87
2021/12/05 11:50:09;;;;;;;70.13;57.13;;;;;;;0.64;100.00;100502.66;4968264;28;20434;-86
2021/12/05 11:52:39;;;;;;;74.53;60.65;;;;;;;0.76;100.00;100519.59;4973504;28;20061;-87
2021/12/05 11:55:06;;;;;;;88.60;62.15;;;;;;;0.59;100.00;100529.59;4966115;28;20046;-86
2021/12/05 11:57:32;;;;;;;87.00;61.20;;;;;;;0.66;100.00;100511.94;4962931;28;20198;-86
2021/12/05 12:00:03;;;;;;;80.72;60.75;;;;;;;0.68;100.00;100525.44;4982228;28;20030;-86
2021/12/05 12:02:35;;;;;;;79.15;61.10;;;;;;;0.79;100.00;100528.06;4968813;28;20078;-88
2021/12/05 12:05:05;;;;;;;80.40;61.13;;;;;;;0.75;100.00;100528.91;4983123;28;20038;-86
2021/12/05 12:07:40;;;;;;;85.65;62.38;;;;;;;0.89;100.00;100526.44;4967322;28;20054;-85
2021/12/05 12:10:44;;;;;;;81.90;62.00;;;;;;;0.85;100.00;100538.25;4968073;28;20035;-86
2021/12/05 12:13:23;;;;;;;76.80;62.60;;;;;;;0.89;100.00;100536.59;4942566;29;20071;-88
2021/12/05 12:15:58;;;;;;;86.40;65.20;;;;;;;0.79;100.00;100543.25;4980829;28;20043;-87
2021/12/05 12:18:28;;;;;;;83.40;62.60;;;;;;;0.76;100.00;100535.63;4955974;28;20482;-87
2021/12/05 12:21:04;;;;;;;77.30;61.92;;;;;;;0.59;100.00;100511.88;4986151;28;20084;-87
2021/12/05 12:23:32;;;;;;;84.05;62.60;;;;;;;0.62;100.00;100535.53;4968710;28;20049;-86
2021/12/05 12:26:00;;;;;;;82.00;61.47;;;;;;;0.74;100.00;100539.84;4993283;28;20009;-86
2021/12/05 12:28:26;;;;;;;83.60;61.63;;;;;;;0.69;100.00;100534.75;4960213;29;20462;-86
2021/12/05 12:31:11;;;;;;;70.95;57.97;;;;;;;0.64;100.00;100538.09;4960643;29;20027;-86
2021/12/05 12:33:58;;;;;;;81.90;61.85;;;;;;;0.59;100.00;100544.78;4990760;28;20058;-85
2021/12/05 12:36:36;;;;;;;64.53;55.78;;;;;;;0.47;100.00;100525.28;4988546;28;20299;-87
2021/12/05 12:39:06;;;;;;;71.55;58.78;;;;;;;0.43;100.00;100526.94;4969487;28;20035;-86
2021/12/05 12:41:34;;;;;;;82.60;61.47;;;;;;;0.50;100.00;100543.00;4973400;28;20042;-86
2021/12/05 12:44:04;;;;;;;73.78;58.83;;;;;;;0.47;100.00;100535.41;4990762;28;20030;-86
2021/12/05 12:46:33;;;;;;;75.38;58.90;;;;;;;0.59;100.00;100549.84;4974329;28;20114;-86
2021/12/05 12:49:13;;;;;;;69.93;56.33;;;;;;;0.60;100.00;100554.06;4990560;28;20022;-85
2021/12/05 12:51:44;;;;;;;89.03;64.07;;;;;;;0.56;100.00;100549.81;4988617;28;20019;-86
2021/12/05 12:54:14;;;;;;;85.85;61.15;;;;;;;0.57;100.00;100554.88;4976725;28;20042;-85
2021/12/05 12:56:42;;;;;;;91.00;64.65;;;;;;;0.51;100.00;100563.28;4975659;28;20035;-85
2021/12/05 12:59:14;;;;;;;89.30;64.63;;;;;;;0.46;100.00;100564.91;4973920;29;20027;-86
2021/12/05 13:12:47;;;;;;;92.10;66.07;;;;;;;0.59;100.00;100585.28;5000225;28;20582;-86
2021/12/05 13:15:24;;;;;;;89.03;64.18;;;;;;;0.69;100.00;100590.44;4957463;28;20104;-83
2021/12/05 13:18:03;;;;;;;96.97;64.57;;;;;;;0.58;100.00;100581.06;4985704;28;20043;-84
2021/12/05 13:20:41;;;;;;;101.07;66.20;;;;;;;0.64;100.00;100586.19;4966833;28;20079;-86
2021/12/05 13:23:12;;;;;;;88.85;64.78;;;;;;;0.59;100.00;100572.63;4986033;28;20069;-86
2021/12/05 13:26:07;;;;;;;100.45;65.78;;;;;;;0.73;100.00;100593.84;4992201;28;20014;-85
2021/12/05 13:28:45;;;;;;;92.40;65.72;;;;;;;0.57;100.00;100574.28;4996870;28;20123;-86
2021/12/05 13:31:29;;;;;;;86.60;63.33;;;;;;;0.66;100.00;100604.75;4979382;28;20030;-83
2021/12/05 13:34:19;;;;;;;86.40;64.22;;;;;;;0.76;100.00;100613.28;4979549;28;20144;-84
2021/12/05 13:36:53;;;;;;;78.13;62.67;;;;;;;0.75;100.00;100615.00;4950013;29;20098;-85
2021/12/05 13:39:46;;;;;;;91.38;64.78;;;;;;;0.70;100.00;100619.13;4949568;29;20031;-84
2021/12/05 13:42:22;;;;;;;85.15;63.15;;;;;;;0.71;100.00;100615.78;4965102;28;20171;-84
2021/12/05 13:45:04;;;;;;;89.57;67.05;;;;;;;0.64;100.00;100619.09;4995445;28;20034;-85
2021/12/05 13:48:05;;;;;;;93.72;65.65;;;;;;;0.69;100.00;100622.53;4997049;28;20038;-84
2021/12/05 13:50:32;;;;;;;85.70;63.13;;;;;;;0.80;100.00;100615.88;4984958;28;20095;-84
2021/12/05 13:53:07;;;;;;;84.93;63.63;;;;;;;0.75;100.00;100625.13;4977109;28;20122;-84
2021/12/05 13:55:53;;;;;;;75.53;61.25;;;;;;;0.69;100.00;100632.66;5009114;28;20027;-83
2021/12/05 13:58:43;;;;;;;83.22;62.17;;;;;;;0.76;100.00;100636.09;4977754;28;20027;-85
2021/12/05 14:01:16;;;;;;;82.93;63.28;;;;;;;0.63;100.00;100641.00;4988053;28;20023;-86
2021/12/05 14:03:58;;;;;;;77.93;62.67;;;;;;;0.52;100.00;100638.34;4977109;28;20193;-86
2021/12/05 14:06:35;;;;;;;76.00;61.22;;;;;;;0.67;100.00;100650.34;4975773;28;20155;-85
2021/12/05 14:09:12;;;;;;;87.20;62.42;;;;;;;0.66;100.00;100658.75;4972201;28;20034;-83
2021/12/05 14:11:46;;;;;;;82.20;63.63;;;;;;;0.65;100.00;100659.63;4997601;28;20046;-85
2021/12/05 14:14:13;;;;;;;82.72;61.63;;;;;;;0.58;100.00;100641.81;4969446;28;20019;-84
2021/12/05 14:16:41;;;;;;;90.03;65.38;;;;;;;0.64;100.00;100655.38;4992519;28;20086;-85
2021/12/05 14:19:10;;;;;;;90.57;64.60;;;;;;;0.59;100.00;100658.69;4968269;28;20426;-83
2021/12/05 14:21:48;;;;;;;106.72;66.57;;;;;;;0.55;100.00;100675.53;4987109;28;20125;-84
2021/12/05 14:24:21;;;;;;;80.65;63.85;;;;;;;0.43;100.00;100678.78;4961953;28;20030;-85
2021/12/05 14:26:49;;;;;;;86.68;63.80;;;;;;;0.33;100.00;100664.28;4977236;28;20088;-85
2021/12/05 14:29:20;;;;;;;91.22;61.60;;;;;;;0.36;100.00;100692.16;4958763;28;20115;-86
2021/12/05 14:31:49;;;;;;;90.78;62.95;;;;;;;0.30;100.00;100699.66;4972312;28;20403;-86
2021/12/05 14:34:15;;;;;;;96.38;65.10;;;;;;;0.34;100.00;100701.44;4971999;28;20027;-84
2021/12/05 14:36:43;;;;;;;;;;;;;;;0.38;100.00;100708.22;4969341;28;20034;-85
2021/12/05 14:39:22;;;;;;;90.85;63.10;;;;;;;0.34;100.00;100709.03;4966626;28;19990;-86
2021/12/05 14:41:51;;;;;;;93.47;65.60;;;;;;;0.06;100.00;100700.19;4981908;28;20041;-86
2021/12/05 14:44:18;;;;;;;75.97;60.60;;;;;;;0.12;100.00;100711.25;4969238;28;20049;-85
2021/12/05 14:47:03;;;;;;;81.65;60.70;;;;;;;0.22;100.00;100709.69;4965505;28;20535;-86
2021/12/05 14:49:32;;;;;;;81.30;61.70;;;;;;;0.41;100.00;100725.97;4978428;28;20035;-85
2021/12/05 14:51:59;;;;;;;75.80;59.90;;;;;;;0.15;100.00;100716.34;4964425;28;20031;-86
2021/12/05 14:54:32;;;;;;;88.18;62.50;;;;;;;0.16;100.00;100735.78;4969353;28;20019;-85
2021/12/05 14:57:04;;;;;;;83.38;61.45;;;;;;;0.41;100.00;100736.09;4982586;28;20406;-85
2021/12/05 14:59:29;;;;;;;91.03;64.32;;;;;;;0.30;100.00;100746.09;4970004;28;20398;-86
2021/12/05 15:01:57;;;;;;;83.97;60.60;;;;;;;0.38;100.00;100733.50;4960116;28;20034;-85
2021/12/05 15:04:37;;;;;;;79.22;60.90;;;;;;;0.24;100.00;100750.19;4957777;28;20597;-84
2021/12/05 15:07:03;;;;;;;75.40;60.78;;;;;;;0.11;100.00;100739.91;4960317;28;20042;-87
2021/12/05 15:09:43;;;;;;;74.35;58.97;;;;;;;0.30;100.00;100755.34;4966956;28;20023;-86
2021/12/05 15:12:14;;;;;;;75.13;60.05;;;;;;;0.03;100.00;100733.03;4958132;29;20124;-86
2021/12/05 15:14:43;;;;;;;77.07;60.83;;;;;;;0.35;100.00;100764.72;4951771;28;20034;-84
2021/12/05 15:17:19;;;;;;;83.03;61.47;;;;;;;0.62;100.00;100757.44;4983383;28;20019;-85
2021/12/05 15:19:49;;;;;;;84.80;60.90;;;;;;;0.36;100.00;100757.97;4981194;28;20034;-86
2021/12/05 15:22:16;;;;;;;80.97;60.67;;;;;;;0.40;100.00;100767.31;4980780;28;20027;-87
2021/12/05 15:24:52;;;;;;;79.22;59.72;;;;;;;0.29;100.00;100754.50;4962423;28;20027;-85
2021/12/05 15:27:19;;;;;;;77.10;60.43;;;;;;;0.32;100.00;100768.88;4965898;28;20027;-84
2021/12/05 15:29:49;;;;;;;73.90;59.45;;;;;;;0.23;100.00;100789.00;4953865;29;20284;-84
2021/12/05 15:32:22;;;;;;;76.85;60.85;;;;;;;0.21;100.00;100780.50;4957603;28;20023;-85
2021/12/05 15:34:57;;;;;;;71.43;58.65;;;;;;;0.27;100.00;100778.06;4965253;28;20105;-86
2021/12/05 15:37:23;;;;;;;75.15;60.47;;;;;;;0.28;100.00;100788.22;4983930;28;20033;-85
2021/12/05 15:39:51;;;;;;;80.93;61.67;;;;;;;0.15;100.00;100777.06;4975738;28;20049;-84
2021/12/05 15:42:29;;;;;;;80.82;60.40;;;;;;;0.26;100.00;100799.16;4988371;28;20118;-85
2021/12/05 16:13:59;;;;;;;75.72;60.72;;;;;;;0.17;100.00;100860.56;4978254;28;20057;-89
2021/12/05 16:16:33;;;;;;;84.05;62.22;;;;;;;0.08;100.00;100863.81;4941529;28;20039;-91
2021/12/05 16:19:19;;;;;;;69.95;59.55;;;;;;;-0.08;100.00;100847.53;4958042;29;20032;-90
2021/12/05 16:22:07;;;;;;;76.88;60.20;;;;;;;0.10;100.00;100874.81;4955159;29;20024;-89
2021/12/05 16:27:18;;;;;;;77.85;59.85;;;;;;;-0.12;100.00;100839.88;5002818;23;20034;-90
2021/12/05 16:29:44;;;;;;;82.75;61.10;;;;;;;-0.35;100.00;100830.22;4952143;28;20015;-89
2021/12/05 16:36:08;;;;;;;76.32;60.15;;;;;;;-0.08;100.00;100854.25;5018635;28;20018;-88
2021/12/05 16:38:43;;;;;;;81.18;60.47;;;;;;;0.19;100.00;100889.25;4981061;28;20046;-89
2021/12/05 16:41:39;;;;;;;72.03;59.45;;;;;;;0.09;100.00;100897.53;4972587;28;20117;-88
2021/12/05 16:44:14;;;;;;;74.28;59.78;;;;;;;-0.05;100.00;100869.47;4963778;28;20031;-89
2021/12/05 16:47:02;;;;;;;83.70;61.10;;;;;;;-0.10;100.00;100881.19;4983716;28;20057;-88
2021/12/05 16:49:38;;;;;;;80.15;61.25;;;;;;;-0.01;100.00;100894.00;4975860;28;20043;-88
2021/12/05 16:52:20;;;;;;;84.70;62.42;;;;;;;0.08;100.00;100876.47;4994020;28;20053;-88
2021/12/05 16:54:53;;;;;;;78.80;62.05;;;;;;;-0.06;100.00;100855.16;4977997;28;20045;-87
2021/12/05 17:04:57;;;;;;;93.40;64.18;;;;;;;0.23;100.00;100918.00;4858560;29;20061;-88
2021/12/05 17:08:05;;;;;;;;;;;;;;;;;;;;;
2021/12/05 17:16:08;;;;;;;90.85;61.58;;;;;;;0.23;100.00;100888.50;4971641;28;20074;-90
2021/12/05 17:18:44;;;;;;;81.82;62.40;;;;;;;0.09;100.00;100903.44;4964134;28;20027;-90
2021/12/05 17:21:23;;;;;;;75.35;61.20;;;;;;;0.20;100.00;100920.50;4965916;28;20068;-90
2021/12/05 17:23:55;;;;;;;84.32;63.92;;;;;;;0.34;100.00;100931.69;5216586;23;20032;-90
2021/12/05 17:26:53;;;;;;;83.50;62.65;;;;;;;0.32;100.00;100946.00;4975100;28;20099;-91
2021/12/05 17:29:29;;;;;;;85.22;64.20;;;;;;;0.15;100.00;100928.00;4987783;28;20048;-91
2021/12/05 17:32:24;;;;;;;90.93;64.03;;;;;;;0.33;100.00;100957.81;4961533;28;20032;-88
2021/12/05 17:35:10;;;;;;;82.95;62.75;;;;;;;0.27;100.00;100927.34;4968660;28;21955;-90
2021/12/05 17:37:50;;;;;;;87.00;64.50;;;;;;;0.25;100.00;100964.44;4940057;29;20028;-89
2021/12/05 17:40:51;;;;;;;85.80;63.75;;;;;;;0.26;100.00;100966.16;4945064;29;20114;-88
2021/12/05 17:44:17;;;;;;;;;;;;;;;;;;;;;
2021/12/05 17:47:12;;;;;;;;;;;;;;;;;;;;;
2021/12/05 17:50:44;;;;;;;79.47;61.28;;;;;;;0.49;100.00;100969.03;4930290;29;20110;-89
2021/12/05 17:57:32;;;;;;;85.30;61.55;;;;;;;0.48;100.00;100980.03;4968105;29;20047;-89
2021/12/05 18:03:57;;;;;;;87.75;62.58;;;;;;;0.27;100.00;100958.59;4931177;28;20067;-91
2021/12/05 18:17:22;;;;;;;;;;;;;;;;;;;;;